createdAt,value
2022-09-09T00:01:11.028Z,98332.69
2022-09-09T00:03:54.300Z,98341.41
2022-09-09T00:06:23.999Z,98342.66
2022-09-09T00:09:16.906Z,98336.03
2022-09-09T00:12:02.304Z,98331.47
2022-09-09T00:14:47.340Z,98332.28
2022-09-09T00:17:27.056Z,98334.16
2022-09-09T00:20:05.881Z,98328.16
2022-09-09T00:22:33.460Z,98321.28
2022-09-09T00:25:12.128Z,98325.88
2022-09-09T00:27:46.737Z,98329.41
2022-09-09T00:30:23.633Z,98336.00
2022-09-09T00:33:00.677Z,98337.03
2022-09-09T00:35:35.152Z,98336.88
2022-09-09T00:38:11.786Z,98340.19
2022-09-09T00:41:04.775Z,98345.59
2022-09-09T00:43:32.676Z,98350.75
2022-09-09T00:46:01.993Z,98340.56
2022-09-09T00:48:53.103Z,98345.72
2022-09-09T00:51:58.187Z,98349.91
2022-09-09T00:54:43.082Z,98353.41
2022-09-09T00:57:24.894Z,98354.34
2022-09-09T01:00:16.760Z,98357.63
2022-09-09T01:03:03.880Z,98364.63
2022-09-09T01:05:33.228Z,98362.97
2022-09-09T01:08:03.506Z,98366.38
2022-09-09T01:10:40.206Z,98366.81
2022-09-09T01:13:16.155Z,98355.78
2022-09-09T01:15:45.415Z,98364.06
2022-09-09T01:18:17.987Z,98363.41
2022-09-09T01:21:18.371Z,98358.19
2022-09-09T01:24:05.184Z,98364.66
2022-09-09T01:26:46.982Z,98355.50
2022-09-09T01:29:24.150Z,98357.34
2022-09-09T01:31:59.554Z,98352.00
2022-09-09T01:34:29.739Z,98350.63
2022-09-09T01:37:13.931Z,98355.25
2022-09-09T01:39:45.295Z,98350.88
2022-09-09T01:42:17.044Z,98361.31
2022-09-09T01:44:43.964Z,98361.94
2022-09-09T01:47:10.542Z,98367.97
2022-09-09T01:49:52.266Z,98371.13
2022-09-09T01:52:23.643Z,98374.41
2022-09-09T01:54:50.347Z,98366.00
2022-09-09T01:57:28.691Z,98363.13
2022-09-09T02:00:12.782Z,98366.00
2022-09-09T02:03:10.119Z,98377.75
2022-09-09T02:06:00.929Z,98374.66
2022-09-09T02:08:48.361Z,98375.22
2022-09-09T02:11:17.875Z,98370.22
2022-09-09T02:14:02.611Z,98372.34
2022-09-09T02:16:58.414Z,98373.16
2022-09-09T02:19:40.091Z,98372.34
2022-09-09T02:22:16.880Z,98360.66
2022-09-09T02:24:43.532Z,98364.41
2022-09-09T02:27:18.068Z,98354.81
2022-09-09T02:29:45.822Z,98359.81
2022-09-09T02:32:15.900Z,98370.84
2022-09-09T02:34:50.156Z,98365.28
2022-09-09T02:37:21.069Z,98361.31
2022-09-09T02:39:51.333Z,98370.25
2022-09-09T02:42:20.328Z,98350.47
2022-09-09T02:44:46.751Z,98354.59
2022-09-09T02:47:31.456Z,98349.78
2022-09-09T02:50:28.972Z,98360.16
2022-09-09T02:53:16.688Z,98348.50
2022-09-09T02:56:04.891Z,98346.03
2022-09-09T02:58:34.440Z,98351.81
2022-09-09T03:01:04.718Z,98344.56
2022-09-09T03:03:32.298Z,98347.53
2022-09-09T03:06:00.886Z,98341.50
2022-09-09T03:08:28.589Z,98353.34
2022-09-09T03:10:56.799Z,98351.88
2022-09-09T03:13:26.256Z,98353.91
2022-09-09T03:15:52.743Z,98351.44
2022-09-09T03:18:20.879Z,98351.19
2022-09-09T03:20:50.567Z,98348.25
2022-09-09T03:23:18.124Z,98351.81
2022-09-09T03:25:52.887Z,98345.59
2022-09-09T03:28:31.798Z,98343.50
2022-09-09T03:31:04.820Z,98341.97
2022-09-09T03:33:37.849Z,98342.16
2022-09-09T03:36:06.387Z,98345.09
2022-09-09T03:38:33.082Z,98348.00
2022-09-09T03:41:01.078Z,98348.19
2022-09-09T03:43:28.519Z,98349.72
2022-09-09T03:45:58.059Z,98339.50
2022-09-09T03:48:28.789Z,98340.56
2022-09-09T03:51:01.458Z,98333.50
2022-09-09T03:53:30.158Z,98335.59
2022-09-09T03:56:00.617Z,98329.19
2022-09-09T03:58:28.422Z,98325.72
2022-09-09T04:01:05.981Z,98317.00
2022-09-09T04:03:33.117Z,98329.66
2022-09-09T04:06:01.347Z,98329.47
2022-09-09T04:08:31.360Z,98334.53
2022-09-09T04:10:59.076Z,98330.06
2022-09-09T04:13:27.363Z,98330.44
2022-09-09T04:15:56.096Z,98338.69
2022-09-09T04:18:23.385Z,98330.38
2022-09-09T04:20:51.182Z,98328.72
2022-09-09T04:23:21.506Z,98337.63
2022-09-09T04:25:55.703Z,98329.91
2022-09-09T04:28:24.808Z,98341.16
2022-09-09T04:30:52.599Z,98339.06
2022-09-09T04:33:20.438Z,98338.69
2022-09-09T04:35:50.900Z,98336.78
2022-09-09T04:38:19.072Z,98329.53
2022-09-09T04:40:48.688Z,98336.38
2022-09-09T04:43:15.675Z,98334.09
2022-09-09T04:45:44.825Z,98331.59
2022-09-09T04:48:11.357Z,98328.03
2022-09-09T04:50:37.824Z,98335.47
2022-09-09T04:53:05.956Z,98325.09
2022-09-09T04:55:35.700Z,98319.91
2022-09-09T04:58:06.883Z,98326.53
2022-09-09T05:00:34.768Z,98335.28
2022-09-09T05:03:06.823Z,98332.59
2022-09-09T05:05:37.402Z,98333.81
2022-09-09T05:08:06.234Z,98332.34
2022-09-09T05:10:34.366Z,98348.13
2022-09-09T05:13:00.815Z,98338.97
2022-09-09T05:15:30.060Z,98343.94
2022-09-09T05:18:00.179Z,98345.34
2022-09-09T05:20:28.284Z,98339.16
2022-09-09T05:22:55.794Z,98341.25
2022-09-09T05:25:25.393Z,98343.34
2022-09-09T05:27:51.944Z,98345.03
2022-09-09T05:30:19.769Z,98336.75
2022-09-09T05:32:46.227Z,98347.59
2022-09-09T05:35:14.284Z,98341.66
2022-09-09T05:37:40.778Z,98348.50
2022-09-09T05:40:07.269Z,98340.47
2022-09-09T05:42:34.169Z,98359.72
2022-09-09T05:45:00.899Z,98344.22
2022-09-09T05:47:28.629Z,98351.75
2022-09-09T05:49:56.077Z,98356.16
2022-09-09T05:52:24.561Z,98357.06
2022-09-09T05:54:51.255Z,98349.31
2022-09-09T05:57:18.128Z,98355.63
2022-09-09T05:59:44.519Z,98347.56
2022-09-09T06:02:11.066Z,98351.47
2022-09-09T06:04:37.803Z,98353.13
2022-09-09T06:07:05.681Z,98346.22
2022-09-09T06:09:32.294Z,98355.53
2022-09-09T06:11:59.125Z,98353.41
2022-09-09T06:14:27.823Z,98355.31
2022-09-09T06:16:57.579Z,98353.41
2022-09-09T06:19:28.012Z,98360.03
2022-09-09T06:21:57.030Z,98348.78
2022-09-09T06:24:23.410Z,98338.63
2022-09-09T06:26:49.823Z,98343.94
2022-09-09T06:29:21.004Z,98350.91
2022-09-09T06:31:48.575Z,98349.63
2022-09-09T06:34:22.923Z,98357.31
2022-09-09T06:36:53.251Z,98348.94
2022-09-09T06:39:19.567Z,98347.06
2022-09-09T06:41:46.450Z,98353.53
2022-09-09T06:44:35.785Z,98355.88
2022-09-09T06:47:04.364Z,98362.16
2022-09-09T06:49:31.846Z,98356.59
2022-09-09T06:51:58.646Z,98368.41
2022-09-09T06:54:26.257Z,98357.69
2022-09-09T06:56:52.924Z,98370.41
2022-09-09T06:59:23.122Z,98375.13
2022-09-09T07:01:55.848Z,98373.00
2022-09-09T07:04:22.977Z,98382.91
2022-09-09T07:06:49.576Z,98380.31
2022-09-09T07:09:21.372Z,98396.22
2022-09-09T07:11:53.692Z,98381.25
2022-09-09T07:14:22.855Z,98384.97
2022-09-09T07:16:59.329Z,98391.53
2022-09-09T07:19:27.812Z,98393.16
2022-09-09T07:21:55.500Z,98382.34
2022-09-09T07:24:23.931Z,98400.63
2022-09-09T07:26:53.032Z,98386.09
2022-09-09T07:29:20.928Z,98379.25
2022-09-09T07:31:49.297Z,98382.22
2022-09-09T07:34:20.022Z,98391.47
2022-09-09T07:36:47.571Z,98391.41
2022-09-09T07:39:15.094Z,98385.53
2022-09-09T07:41:48.773Z,98392.06
2022-09-09T07:44:23.202Z,98391.47
2022-09-09T07:46:54.730Z,98393.41
2022-09-09T07:49:32.153Z,98393.94
2022-09-09T07:52:00.403Z,98397.81
2022-09-09T07:54:27.223Z,98408.84
2022-09-09T07:56:54.105Z,98395.03
2022-09-09T07:59:23.338Z,98403.47
2022-09-09T08:01:56.287Z,98416.91
2022-09-09T08:04:27.053Z,98418.25
2022-09-09T08:07:00.230Z,98409.75
2022-09-09T08:09:29.701Z,98416.66
2022-09-09T08:12:09.158Z,98418.72
2022-09-09T08:14:35.756Z,98411.38
2022-09-09T08:17:02.139Z,98414.59
2022-09-09T08:19:36.583Z,98411.88
2022-09-09T08:22:05.886Z,98408.06
2022-09-09T08:24:33.621Z,98412.75
2022-09-09T08:27:00.307Z,98409.84
2022-09-09T08:29:28.867Z,98409.84
2022-09-09T08:31:58.428Z,98412.34
2022-09-09T08:34:28.240Z,98416.28
2022-09-09T08:36:57.073Z,98413.00
2022-09-09T08:39:30.260Z,98405.19
2022-09-09T08:42:03.701Z,98413.47
2022-09-09T08:44:48.760Z,98409.88
2022-09-09T08:47:53.404Z,98412.31
2022-09-09T08:50:39.481Z,98413.66
2022-09-09T08:53:25.868Z,98406.88
2022-09-09T08:56:02.310Z,98409.84
2022-09-09T08:58:51.968Z,98403.28
2022-09-09T09:01:41.974Z,98414.63
2022-09-09T09:04:37.997Z,98418.00
2022-09-09T09:07:35.089Z,98415.25
2022-09-09T09:10:41.512Z,98409.84
2022-09-09T09:13:21.943Z,98420.59
2022-09-09T09:15:57.629Z,98428.84
2022-09-09T09:18:24.443Z,98430.75
2022-09-09T09:21:05.844Z,98420.66
2022-09-09T09:24:08.086Z,98415.44
2022-09-09T09:26:36.399Z,98417.06
2022-09-09T09:29:12.891Z,98424.16
2022-09-09T09:31:40.068Z,98408.41
2022-09-09T09:34:09.490Z,98417.78
2022-09-09T09:37:02.698Z,98410.13
2022-09-09T09:42:25.987Z,98400.72
2022-09-09T09:44:55.430Z,98420.53
2022-09-09T09:47:24.336Z,98397.34
2022-09-09T09:50:20.321Z,98415.00
2022-09-09T09:52:56.656Z,98395.22
2022-09-09T09:55:25.015Z,98386.06
2022-09-09T09:57:52.741Z,98390.47
2022-09-09T10:00:22.581Z,98380.09
2022-09-09T10:02:57.334Z,98392.44
2022-09-09T10:05:36.018Z,98381.81
2022-09-09T10:08:13.188Z,98379.81
2022-09-09T10:10:48.250Z,98377.63
2022-09-09T10:13:42.639Z,98374.41
2022-09-09T10:16:38.256Z,98375.97
2022-09-09T10:19:21.740Z,98374.66
2022-09-09T10:22:18.820Z,98378.50
2022-09-09T10:25:03.267Z,98375.44
2022-09-09T10:28:08.118Z,98370.97
2022-09-09T10:30:51.207Z,98378.75
2022-09-09T10:33:33.880Z,98366.78
2022-09-09T10:36:09.400Z,98376.31
2022-09-09T10:38:46.220Z,98382.03
2022-09-09T10:41:31.546Z,98394.44
2022-09-09T10:44:15.304Z,98392.78
2022-09-09T10:47:01.920Z,98388.03
2022-09-09T10:50:10.397Z,98396.78
2022-09-09T10:53:09.566Z,98390.63
2022-09-09T10:55:51.700Z,98401.22
2022-09-09T10:58:27.151Z,98413.97
2022-09-09T11:00:58.905Z,98414.16
2022-09-09T11:03:34.259Z,98410.44
2022-09-09T11:06:06.852Z,98413.22
2022-09-09T11:08:40.246Z,98408.06
2022-09-09T11:11:27.950Z,98423.13
2022-09-09T11:14:09.450Z,98409.72
2022-09-09T11:16:49.347Z,98396.41
2022-09-09T11:19:20.196Z,98415.00
2022-09-09T11:21:49.032Z,98401.13
2022-09-09T11:24:44.801Z,98419.16
2022-09-09T11:27:21.667Z,98426.69
2022-09-09T11:30:07.837Z,98434.28
2022-09-09T11:33:33.331Z,98435.94
2022-09-09T11:36:08.257Z,98439.19
2022-09-09T11:38:46.702Z,98426.41
2022-09-09T11:41:21.011Z,98430.97
2022-09-09T11:43:53.124Z,98432.81
2022-09-09T11:46:23.044Z,98433.97
2022-09-09T11:49:04.573Z,98431.25
2022-09-09T11:51:33.988Z,98428.69
2022-09-09T11:54:33.004Z,98422.13
2022-09-09T11:56:59.700Z,98424.50
2022-09-09T11:59:34.055Z,98432.59
2022-09-09T12:02:03.129Z,98405.84
2022-09-09T12:04:37.625Z,98413.84
2022-09-09T12:07:40.138Z,98407.78
2022-09-09T12:10:09.778Z,98405.59
2022-09-09T12:12:43.839Z,98417.22
2022-09-09T12:15:10.582Z,98405.75
2022-09-09T12:17:47.656Z,98409.88
2022-09-09T12:20:16.280Z,98406.91
2022-09-09T12:22:53.186Z,98404.28
2022-09-09T12:25:39.727Z,98395.09
2022-09-09T12:28:16.151Z,98396.44
2022-09-09T12:30:54.773Z,98409.16
2022-09-09T12:33:22.729Z,98406.69
2022-09-09T12:35:55.890Z,98408.31
2022-09-09T12:38:32.511Z,98400.81
2022-09-09T12:40:59.956Z,98396.47
2022-09-09T12:43:27.943Z,98392.88
2022-09-09T12:46:07.562Z,98390.31
2022-09-09T12:48:41.228Z,98383.38
2022-09-09T12:51:22.288Z,98380.28
2022-09-09T12:53:48.892Z,98395.66
2022-09-09T12:56:47.516Z,98383.59
2022-09-09T12:59:25.598Z,98373.63
2022-09-09T13:02:00.338Z,98379.25
2022-09-09T13:04:27.091Z,98396.59
2022-09-09T13:06:53.509Z,98383.69
2022-09-09T13:09:20.447Z,98379.97
2022-09-09T13:11:51.428Z,98395.44
2022-09-09T13:14:29.932Z,98380.91
2022-09-09T13:17:01.337Z,98384.28
2022-09-09T13:19:37.307Z,98382.53
2022-09-09T13:22:33.799Z,98378.41
2022-09-09T13:25:22.718Z,98365.81
2022-09-09T13:28:04.819Z,98377.59
2022-09-09T13:30:37.080Z,98378.47
2022-09-09T13:33:13.971Z,98370.47
2022-09-09T13:36:06.586Z,98397.56
2022-09-09T13:39:00.239Z,98405.97
2022-09-09T13:41:32.020Z,98414.69
2022-09-09T13:43:58.783Z,98411.78
2022-09-09T13:46:45.644Z,98420.53
2022-09-09T13:49:14.582Z,98408.41
2022-09-09T13:51:46.360Z,98410.00
2022-09-09T13:54:14.600Z,98411.97
2022-09-09T13:56:42.503Z,98407.44
2022-09-09T13:59:17.564Z,98410.22
2022-09-09T14:01:43.964Z,98413.22
2022-09-09T14:04:11.508Z,98398.16
2022-09-09T14:06:40.120Z,98393.38
2022-09-09T14:09:07.935Z,98392.38
2022-09-09T14:11:34.451Z,98395.94
2022-09-09T14:14:01.814Z,98399.88
2022-09-09T14:16:28.766Z,98392.47
2022-09-09T14:18:57.517Z,98390.34
2022-09-09T14:21:24.821Z,98399.22
2022-09-09T14:23:51.498Z,98399.31
2022-09-09T14:26:19.764Z,98398.97
2022-09-09T14:28:55.772Z,98390.69
2022-09-09T14:31:23.782Z,98393.09
2022-09-09T14:33:51.673Z,98399.59
2022-09-09T14:36:19.476Z,98398.91
2022-09-09T14:38:45.900Z,98394.81
2022-09-09T14:41:17.695Z,98389.72
2022-09-09T14:43:45.079Z,98389.56
2022-09-09T14:46:14.813Z,98387.41
2022-09-09T14:48:41.660Z,98371.25
2022-09-09T14:51:10.763Z,98377.34
2022-09-09T14:53:37.543Z,98382.34
2022-09-09T14:56:13.553Z,98382.03
2022-09-09T14:58:40.180Z,98386.63
2022-09-09T15:01:10.833Z,98400.03
2022-09-09T15:03:38.743Z,98384.88
2022-09-09T15:06:15.285Z,98384.53
2022-09-09T15:08:44.143Z,98384.53
2022-09-09T15:11:12.487Z,98392.47
2022-09-09T15:13:40.794Z,98381.72
2022-09-09T15:16:19.132Z,98385.59
2022-09-09T15:18:47.045Z,98395.00
2022-09-09T15:21:19.999Z,98379.44
2022-09-09T15:23:46.458Z,98370.09
2022-09-09T15:26:16.112Z,98376.59
2022-09-09T15:28:44.524Z,98380.16
2022-09-09T15:31:12.507Z,98385.38
2022-09-09T15:33:39.061Z,98380.06
2022-09-09T15:36:17.806Z,98377.13
2022-09-09T15:38:44.868Z,98370.84
2022-09-09T15:41:12.440Z,98373.97
2022-09-09T15:43:40.120Z,98380.56
2022-09-09T15:46:25.185Z,98381.63
2022-09-09T15:48:53.845Z,98375.41
2022-09-09T15:51:41.017Z,98384.75
2022-09-09T15:54:08.118Z,98380.94
2022-09-09T15:56:35.696Z,98386.38
2022-09-09T15:59:05.979Z,98393.75
2022-09-09T16:01:33.323Z,98394.50
2022-09-09T16:04:00.927Z,98391.53
2022-09-09T16:06:29.284Z,98395.78
2022-09-09T16:08:57.707Z,98392.28
2022-09-09T16:11:27.257Z,98398.03
2022-09-09T16:13:55.437Z,98399.59
2022-09-09T16:16:25.197Z,98407.19
2022-09-09T16:18:54.175Z,98410.72
2022-09-09T16:21:27.263Z,98411.34
2022-09-09T16:23:56.908Z,98427.22
2022-09-09T16:26:23.964Z,98449.91
2022-09-09T16:28:50.682Z,98456.44
2022-09-09T16:31:19.777Z,98480.19
2022-09-09T16:33:47.203Z,98468.38
2022-09-09T16:36:17.024Z,98482.00
2022-09-09T16:38:46.327Z,98480.88
2022-09-09T16:41:15.036Z,98460.97
2022-09-09T16:43:42.345Z,98466.72
2022-09-09T16:46:17.402Z,98458.94
2022-09-09T16:48:45.216Z,98452.84
2022-09-09T16:51:29.769Z,98454.84
2022-09-09T16:53:58.554Z,98452.72
2022-09-09T16:56:27.459Z,98451.19
2022-09-09T16:59:03.434Z,98456.22
2022-09-09T17:01:33.733Z,98455.25
2022-09-09T17:04:03.310Z,98457.03
2022-09-09T17:06:31.285Z,98447.66
2022-09-09T17:09:02.473Z,98455.00
2022-09-09T17:11:29.915Z,98459.28
2022-09-09T17:13:58.912Z,98461.47
2022-09-09T17:16:28.300Z,98459.81
2022-09-09T17:18:55.440Z,98467.06
2022-09-09T17:21:26.242Z,98468.16
2022-09-09T17:23:54.807Z,98470.34
2022-09-09T17:26:27.468Z,98472.44
2022-09-09T17:28:59.478Z,98474.28
2022-09-09T17:31:28.389Z,98472.78
2022-09-09T17:33:56.006Z,98476.31
2022-09-09T17:36:25.956Z,98484.88
2022-09-09T17:38:52.875Z,98477.44
2022-09-09T17:41:28.734Z,98475.78
2022-09-09T17:43:55.650Z,98476.41
2022-09-09T17:46:35.238Z,98469.94
2022-09-09T17:49:10.812Z,98473.69
2022-09-09T17:51:37.473Z,98477.97
2022-09-09T17:54:10.944Z,98481.78
2022-09-09T17:56:38.823Z,98481.38
2022-09-09T17:59:07.700Z,98487.81
2022-09-09T18:01:39.397Z,98484.06
2022-09-09T18:04:07.459Z,98478.91
2022-09-09T18:06:39.331Z,98485.38
2022-09-09T18:09:09.143Z,98486.41
2022-09-09T18:11:39.775Z,98489.56
2022-09-09T18:14:06.261Z,98490.41
2022-09-09T18:16:35.907Z,98487.97
2022-09-09T18:19:06.253Z,98487.38
2022-09-09T18:21:34.056Z,98491.72
2022-09-09T18:24:02.499Z,98496.53
2022-09-09T18:26:29.887Z,98507.69
2022-09-09T18:28:59.327Z,98497.72
2022-09-09T18:31:28.019Z,98506.72
2022-09-09T18:33:58.579Z,98508.97
2022-09-09T18:36:28.202Z,98507.50
2022-09-09T18:38:57.496Z,98509.44
2022-09-09T18:41:27.179Z,98509.84
2022-09-09T18:43:55.930Z,98518.41
2022-09-09T18:46:23.819Z,98512.38
2022-09-09T18:48:50.693Z,98508.19
2022-09-09T18:51:20.049Z,98522.78
2022-09-09T18:53:52.719Z,98526.31
2022-09-09T18:56:19.574Z,98529.44
2022-09-09T18:58:48.485Z,98526.53
2022-09-09T19:01:15.613Z,98530.91
2022-09-09T19:03:42.424Z,98544.22
2022-09-09T19:06:12.404Z,98540.06
2022-09-09T19:08:43.528Z,98546.28
2022-09-09T19:11:13.296Z,98550.00
2022-09-09T19:13:40.326Z,98550.00
2022-09-09T19:16:09.543Z,98546.16
2022-09-09T19:18:39.862Z,98549.53
2022-09-09T19:21:24.131Z,98549.69
2022-09-09T19:23:59.962Z,98546.19
2022-09-09T19:26:33.231Z,98547.63
2022-09-09T19:28:59.792Z,98547.81
2022-09-09T19:31:27.893Z,98542.03
2022-09-09T19:33:58.445Z,98536.38
2022-09-09T19:36:27.759Z,98537.56
2022-09-09T19:38:55.184Z,98540.69
2022-09-09T19:41:24.823Z,98535.47
2022-09-09T19:43:53.125Z,98531.34
2022-09-09T19:46:19.638Z,98529.63
2022-09-09T19:48:46.649Z,98532.06
2022-09-09T19:51:21.545Z,98531.41
2022-09-09T19:54:00.738Z,98535.81
2022-09-09T19:56:27.864Z,98535.59
2022-09-09T19:58:54.721Z,98536.00
2022-09-09T20:01:23.948Z,98528.53
2022-09-09T20:03:52.194Z,98528.28
2022-09-09T20:06:26.602Z,98529.13
2022-09-09T20:08:53.730Z,98541.03
2022-09-09T20:11:20.361Z,98528.53
2022-09-09T20:13:48.448Z,98535.84
2022-09-09T20:16:18.198Z,98542.78
2022-09-09T20:18:48.048Z,98540.06
2022-09-09T20:21:17.777Z,98544.16
2022-09-09T20:23:44.293Z,98544.47
2022-09-09T20:26:12.852Z,98529.84
2022-09-09T20:28:42.334Z,98536.47
2022-09-09T20:31:19.553Z,98535.25
2022-09-09T20:33:47.389Z,98534.31
2022-09-09T20:36:17.519Z,98543.41
2022-09-09T20:38:50.297Z,98551.38
2022-09-09T20:41:21.745Z,98547.16
2022-09-09T20:43:49.777Z,98548.91
2022-09-09T20:46:18.094Z,98544.31
2022-09-09T20:48:46.219Z,98548.53
2022-09-09T20:51:14.872Z,98547.47
2022-09-09T20:53:41.656Z,98550.63
2022-09-09T20:56:08.923Z,98556.44
2022-09-09T20:58:36.831Z,98545.63
2022-09-09T21:01:05.939Z,98552.53
2022-09-09T21:03:37.165Z,98552.34
2022-09-09T21:06:06.115Z,98560.94
2022-09-09T21:08:33.820Z,98562.53
2022-09-09T21:11:04.695Z,98566.69
2022-09-09T21:13:33.171Z,98564.47
2022-09-09T21:16:00.205Z,98572.16
2022-09-09T21:18:27.337Z,98571.78
2022-09-09T21:20:54.238Z,98572.59
2022-09-09T21:23:21.347Z,98570.50
2022-09-09T21:25:48.472Z,98576.34
2022-09-09T21:28:16.220Z,98567.47
2022-09-09T21:30:48.199Z,98572.22
2022-09-09T21:33:15.144Z,98572.69
2022-09-09T21:35:42.117Z,98571.47
2022-09-09T21:38:12.696Z,98565.69
2022-09-09T21:40:39.804Z,98566.03
2022-09-09T21:43:11.917Z,98564.91
2022-09-09T21:45:39.924Z,98562.97
2022-09-09T21:48:11.831Z,98565.88
2022-09-09T21:50:39.550Z,98568.16
2022-09-09T21:53:06.228Z,98577.94
2022-09-09T21:55:34.523Z,98572.16
2022-09-09T21:58:01.186Z,98569.28
2022-09-09T22:00:28.263Z,98577.78
2022-09-09T22:02:54.639Z,98569.75
2022-09-09T22:05:21.047Z,98571.69
2022-09-09T22:07:47.371Z,98573.22
2022-09-09T22:10:13.776Z,98561.91
2022-09-09T22:12:40.265Z,98584.94
2022-09-09T22:15:07.691Z,98573.22
2022-09-09T22:17:34.873Z,98578.19
2022-09-09T22:20:01.619Z,98559.22
2022-09-09T22:22:28.055Z,98566.41
2022-09-09T22:24:54.452Z,98580.28
2022-09-09T22:27:20.832Z,98565.69
2022-09-09T22:29:47.223Z,98566.50
2022-09-09T22:32:13.584Z,98575.47
2022-09-09T22:34:40.125Z,98571.84
2022-09-09T22:37:07.132Z,98576.53
2022-09-09T22:39:33.933Z,98589.75
2022-09-09T22:42:00.824Z,98585.25
2022-09-09T22:44:27.496Z,98571.91
2022-09-09T22:46:55.352Z,98574.88
2022-09-09T22:49:23.778Z,98572.28
2022-09-09T22:51:50.342Z,98561.44
2022-09-09T22:54:21.589Z,98559.66
2022-09-09T22:56:49.199Z,98558.16
2022-09-09T22:59:15.890Z,98554.84
2022-09-09T23:01:43.019Z,98546.91
2022-09-09T23:04:09.628Z,98563.19
2022-09-09T23:06:38.416Z,98557.69
2022-09-09T23:09:05.315Z,98557.06
2022-09-09T23:11:36.890Z,98550.03
2022-09-09T23:14:06.720Z,98554.34
2022-09-09T23:16:42.883Z,98551.34
2022-09-09T23:19:15.050Z,98546.09
2022-09-09T23:21:44.006Z,98547.53
2022-09-09T23:24:13.102Z,98551.88
2022-09-09T23:26:39.867Z,98551.97
2022-09-09T23:29:06.410Z,98554.00
2022-09-09T23:31:37.661Z,98556.25
2022-09-09T23:34:05.311Z,98546.09
2022-09-09T23:36:32.580Z,98550.22
2022-09-09T23:39:02.725Z,98554.34
2022-09-09T23:41:30.547Z,98551.19
2022-09-09T23:43:57.592Z,98553.63
2022-09-09T23:46:29.354Z,98551.53
2022-09-09T23:48:57.727Z,98552.34
2022-09-09T23:51:27.267Z,98550.69
2022-09-09T23:53:56.754Z,98555.28
2022-09-09T23:56:27.103Z,98557.31
2022-09-09T23:58:54.036Z,98553.19
